Hlavní strana
METAR-TAF:

METAR-TAF

Letiště :

Ancona, Itálie

zeměpisná šířka: 43-37N, zeměpisná délka: 013-22E, výška: 12 m

Aktuální stav počasí

Zpráva byla vytvořena před 35 minutami, v 06:20 UTC
Jihozápadní vítr 4 kt
Teplota 26°C
Vlhkost vzduchu 61%
Tlak 1015 hPa
Viditelnost 10 km a více

METAR: LIPY 190620Z AUTO 23004KT 9999 NCD 26/18 Q1015

Čas: 08:55 (06:55 UTC)

Předpověď počasí

Zpráva byla vytvořena před 1 hodinou a 55 minutami, v 05:00 UTC
Předpověď platná od 19 v 06 UTC do 20 v 06 UTC
vítr z různých směrů 4 kt
Viditelnost 10 km a více
Žádná oblačnost pod 1500 m, nevyskytují se cumulonimby.
Změna
od 19 v 09 UTC do 19 v 11 UTC
Východní vítr 10 kt
Změna
od 19 v 17 UTC do 19 v 19 UTC
vítr z různých směrů 4 kt

TAF: LIPY 190500Z 1906/2006 VRB04KT CAVOK BECMG 1909/1911 10010KT BECMG 1917/1919 VRB04KT

Stav a předpovědi počasí z více než 4 000 letišť (zprávy METAR a TAF).

Červené a žluté tečky na mapě představují dostupné meteorologické stanice.

Když kurzor umístíte na tečku, zobrazí se název stanice.

Pak kliknutím zobrazíte stav a předpověď počasí.

Chcete-li změnit mapu, kliknutím na zelené tlačítko se znaménkem +mapu přiblížíte, kliknutím na zelené tlačítko se znaménkem – mapu oddálíte a kliknutím na zelené šipky přejdete na sousední mapy.


METAR-TAF: